Latest Weather Observations for Alice Springs Airport

IDD60801

Issued at 11:35 pm CST Wednesday 26 November 2014 (issued every 30 minutes, with the page automatically refreshed every 10 minutes)

About weather observations | Map of weather stations | Latest weather observations for NT | Other Formats
Station Details ID: 015590 Name: ALICE SPRINGS AIRPORT Lat: -23.80 Lon: 133.89 Height: 546.0 m
Data from the previous 72 hours. | See also: Recent months at Alice Springs Airport
Date/Time
CST
Temp
°C
App
Temp
°C
Dew
Point
Rel
Hum
%
Delta-T
°C
Wind Press
QNH
hPa
Press
MSL
hPa
Rain
since 9 am
mm
Dir
 
Spd
km/h
Gust
km/h
Spd
kts
Gust
kts
26/11:30pm 27.3 22.5 0.1 17 13.1 SE 15 22 8 12 1016.1 1012.7 0.0
26/11:00pm 27.5 22.7 0.2 17 13.2 SE 15 24 8 13 1015.8 1012.5 0.0
26/10:30pm 27.2 23.0 1.8 19 12.6 SE 13 17 7 9 1015.8 1012.5 0.0
26/10:00pm 27.7 23.5 1.8 18 12.9 SE 13 19 7 10 1015.5 1012.1 0.0
26/09:30pm 28.5 23.9 1.7 17 13.4 SE 15 20 8 11 1015.1 1011.7 0.0
26/09:00pm 29.3 24.0 1.6 17 13.9 SE 19 24 10 13 1014.7 1011.3 0.0
26/08:30pm 30.1 24.5 1.1 15 14.5 SE 20 28 11 15 1014.4 1011.0 0.0
26/08:00pm 30.2 25.3 1.7 16 14.4 SE 17 24 9 13 1014.2 1010.8 0.0
26/07:30pm 30.9 25.5 1.0 14 15.0 SE 19 26 10 14 1014.0 1010.5 0.0
26/07:00pm 31.7 25.6 0.5 13 15.6 SE 22 32 12 17 1013.6 1010.2 0.0
26/06:30pm 32.5 26.7 2.1 14 15.7 SE 22 30 12 16 1013.4 1010.0 0.0
26/06:00pm 33.0 26.7 1.7 13 16.1 SE 24 33 13 18 1013.1 1009.7 0.0
26/05:30pm 33.7 27.6 2.6 14 16.3 ESE 24 35 13 19 1013.0 1009.6 0.0
26/05:00pm 34.4 28.2 2.3 13 16.8 SE 24 32 13 17 1013.0 1009.6 0.0
26/04:30pm 34.5 26.9 2.6 13 16.8 ESE 32 37 17 20 1013.1 1009.7 0.0
26/04:00pm 34.0 27.4 4.4 15 16.0 SE 28 33 15 18 1013.3 1009.9 0.0
26/03:30pm 33.6 28.7 4.9 16 15.6 E 20 28 11 15 1013.5 1010.1 0.0
26/03:00pm 33.1 28.3 5.8 18 15.0 SE 20 37 11 20 1013.6 1010.2 0.0
26/02:30pm 34.3 28.4 6.0 17 15.7 SE 26 35 14 19 1014.1 1010.7 0.0
26/02:00pm 32.8 27.5 6.8 20 14.5 SE 24 33 13 18 1014.5 1011.1 0.0
26/01:30pm 33.7 28.2 6.0 18 15.3 SE 24 35 13 19 1015.0 1011.6 0.0
26/01:00pm 32.8 28.5 7.1 20 14.4 E 19 37 10 20 1015.4 1012.0 0.0
26/12:30pm 31.6 27.7 6.9 21 13.7 E 17 32 9 17 1016.2 1012.8 0.0
26/12:00pm 31.0 26.6 7.6 23 13.1 E 20 39 11 21 1016.6 1013.2 0.0
26/11:30am 30.2 25.4 7.3 23 12.7 ESE 22 35 12 19 1016.9 1013.5 0.0
26/11:00am 30.0 25.1 6.9 23 12.7 ESE 22 32 12 17 1017.3 1014.0 0.0
26/10:30am 29.0 22.9 6.6 24 12.2 ESE 28 41 15 22 1017.7 1014.4 0.0
26/10:18am 28.9 22.8 6.7 24 12.1 SE 28 46 15 25 1017.7 1014.4 0.0
26/10:00am 28.3 23.0 6.8 25 11.7 ESE 24 33 13 18 1018.1 1014.7 0.0
26/09:30am 28.0 22.6 6.3 25 11.7 ESE 24 32 13 17 1018.3 1014.9 0.0
26/09:00am 27.0 21.3 6.5 27 11.0 ESE 26 39 14 21 1018.3 1014.9 0.0
26/08:30am 25.8 20.2 7.1 30 10.1 ESE 26 33 14 18 1018.3 1014.9 0.0
26/08:00am 25.0 19.0 6.9 31 9.7 E 28 37 15 20 1018.3 1014.9 0.0
26/07:30am 24.1 18.2 7.3 34 9.0 ESE 28 33 15 18 1018.1 1014.7 0.0
26/07:00am 22.6 20.8 9.6 43 7.2 SE 9 13 5 7 1017.7 1014.4 0.0
26/06:30am 19.1 17.9 9.7 54 5.1 W 6 9 3 5 1017.4 1014.1 0.0
26/06:00am 17.6 16.5 9.8 60 4.2 S 6 7 3 4 1017.1 1013.7 0.0
26/05:30am 18.7 17.7 8.8 52 5.3 SW 4 7 2 4 1016.9 1013.5 0.0
26/05:00am 17.9 17.7 9.1 56 4.7 CALM 0 0 0 0 1016.7 1013.3 0.0
26/04:30am 18.4 18.5 10.2 59 4.5 CALM 0 0 0 0 1016.7 1013.3 0.0
26/04:00am 19.1 17.1 8.8 51 5.5 SSE 9 11 5 6 1016.4 1013.0 0.0
26/03:30am 19.2 17.0 8.0 48 5.9 SSE 9 9 5 5 1016.4 1013.0 0.0
26/03:00am 20.3 17.7 7.9 44 6.6 ESE 11 11 6 6 1016.6 1013.2 0.0
26/02:30am 20.8 18.8 7.3 41 7.1 ESE 7 9 4 5 1016.6 1013.2 0.0
26/02:00am 20.2 19.4 8.0 45 6.5 SSW 2 7 1 4 1016.6 1013.2 0.0
26/01:30am 21.4 18.9 6.4 37 7.8 SSE 9 9 5 5 1016.7 1013.3 0.0
26/01:00am 22.1 19.2 6.6 36 8.1 SSE 11 13 6 7 1016.9 1013.5 0.0
26/12:30am 23.4 20.3 5.4 31 9.3 ESE 11 15 6 8 1017.4 1014.1 0.0
26/12:00am 23.4 20.4 5.9 32 9.1 ESE 11 15 6 8 1017.7 1014.4 0.0
 
Date/Time
CST
Temp
°C
App
Temp
°C
Dew
Point
Rel
Hum
%
Delta-T
°C
Wind Press
QNH
hPa
Press
MSL
hPa
Rain
since 9 am
mm
Dir
 
Spd
km/h
Gust
km/h
Spd
kts
Gust
kts
25/11:30pm 23.8 20.5 6.3 32 9.2 SE 13 17 7 9 1017.9 1014.5 0.0
25/11:00pm 24.3 20.6 6.3 31 9.5 SE 15 20 8 11 1018.0 1014.6 0.0
25/10:30pm 24.8 20.7 6.0 30 9.9 SE 17 20 9 11 1017.9 1014.5 0.0
25/10:00pm 25.3 20.7 5.7 28 10.3 SE 19 26 10 14 1017.9 1014.5 0.0
25/09:30pm 25.7 21.2 6.1 28 10.4 SE 19 28 10 15 1017.4 1014.1 0.0
25/09:00pm 26.0 21.9 6.3 28 10.5 SE 17 24 9 13 1017.1 1013.7 0.0
25/08:30pm 26.2 22.1 6.1 27 10.7 SE 17 24 9 13 1017.0 1013.6 0.0
25/08:00pm 26.4 22.3 6.1 27 10.8 SE 17 24 9 13 1016.6 1013.2 0.0
25/07:30pm 26.8 22.0 5.6 25 11.2 SE 20 30 11 16 1016.4 1013.0 0.0
25/07:00pm 27.1 22.4 5.9 26 11.3 SE 20 30 11 16 1016.1 1012.7 0.0
25/06:30pm 27.6 22.7 5.3 24 11.8 SE 20 30 11 16 1015.5 1012.1 0.0
25/06:00pm 28.1 22.3 4.6 22 12.3 SE 24 30 13 16 1015.4 1012.0 0.0
25/05:30pm 28.6 22.9 5.0 22 12.5 SSE 24 33 13 18 1015.2 1011.8 0.0
25/05:00pm 28.9 23.1 4.6 21 12.8 SE 24 39 13 21 1015.0 1011.6 0.0
25/04:30pm 29.4 23.9 5.8 22 12.7 SE 24 35 13 19 1015.2 1011.8 0.0
25/04:00pm 29.6 23.8 6.2 23 12.7 SE 26 35 14 19 1015.4 1012.0 0.0
25/03:30pm 29.6 24.5 6.2 23 12.7 SE 22 33 12 18 1015.5 1012.1 0.0
25/03:00pm 30.3 26.9 13.7 36 10.2 SE 24 39 13 21 1016.2 1012.8 0.0
25/02:30pm 30.6 25.2 6.5 22 13.2 SE 24 33 13 18 1016.4 1013.0 0.0
25/02:00pm 29.4 23.9 5.8 22 12.7 SE 24 37 13 20 1016.9 1013.5 0.0
25/01:30pm 29.2 23.5 4.8 21 12.9 ESE 24 37 13 20 1017.1 1013.7 0.0
25/01:00pm 29.7 23.2 4.5 20 13.3 ESE 28 39 15 21 1017.4 1014.1 0.0
25/12:30pm 29.3 23.0 3.7 19 13.3 ESE 26 35 14 19 1017.6 1014.3 0.0
25/12:00pm 28.6 21.9 3.6 20 12.9 ESE 28 37 15 20 1018.1 1014.7 0.0
25/11:30am 28.0 21.1 2.7 19 12.8 ESE 28 37 15 20 1018.4 1015.0 0.0
25/11:00am 28.5 21.1 2.0 18 13.3 ESE 30 43 16 23 1018.5 1015.1 0.0
25/10:30am 28.1 21.7 0.7 17 13.4 SE 24 37 13 20 1018.7 1015.3 0.0
25/10:00am 28.0 21.2 0.9 17 13.3 SE 26 39 14 21 1018.9 1015.5 0.0
25/09:35am 27.1 19.9 0.8 18 12.8 SE 28 46 15 25 1019.0 1015.7 0.0
25/09:30am 27.2 19.7 1.4 18 12.7 SE 30 43 16 23 1019.0 1015.7 0.0
25/09:00am 26.9 21.1 4.6 24 11.6 SE 24 37 13 20 1019.0 1015.7 0.0
25/08:30am 26.1 19.2 4.7 25 11.1 SE 30 39 16 21 1018.9 1015.5 0.0
25/08:00am 25.6 20.0 5.3 27 10.6 ESE 24 35 13 19 1018.7 1015.3 0.0
25/07:30am 25.0 19.8 5.4 28 10.2 SE 22 32 12 17 1018.6 1015.2 0.0
25/07:00am 24.9 19.7 5.3 28 10.2 SE 22 30 12 16 1018.1 1014.7 0.0
25/06:30am 24.6 19.8 5.6 29 9.9 SE 20 28 11 15 1017.6 1014.3 0.0
25/06:00am 24.6 19.1 5.7 29 9.9 SE 24 39 13 21 1016.9 1013.5 0.0
25/05:30am 25.0 20.5 6.0 29 10.0 SE 19 26 10 14 1016.5 1013.1 -
25/05:00am 25.2 21.6 6.7 30 9.9 SSE 15 26 8 14 1016.0 1012.6 -
25/04:30am 25.3 22.5 8.7 35 9.2 SSE 13 19 7 10 1015.6 1012.3 -
25/04:00am 26.2 22.5 8.0 31 10.0 SE 17 22 9 12 1015.5 1012.1 -
25/03:30am 26.4 23.5 8.3 31 10.0 SE 13 19 7 10 1015.2 1011.8 -
25/03:00am 27.0 22.7 7.7 29 10.6 SE 20 28 11 15 1014.9 1011.5 0.0
25/02:30am 27.2 22.6 8.0 29 10.6 SE 22 32 12 17 1014.7 1011.3 -
25/02:00am 27.3 23.8 8.7 31 10.4 SE 17 26 9 14 1014.9 1011.5 -
25/01:30am 28.0 23.8 8.3 29 11.0 SE 20 30 11 16 1015.1 1011.7 -
25/01:00am 28.5 24.5 8.3 28 11.3 SSE 19 26 10 14 1015.1 1011.7 -
25/12:30am 28.6 25.9 10.5 32 10.5 SSE 15 24 8 13 1015.2 1011.8 -
25/12:00am 29.4 25.8 10.5 31 11.0 SE 20 28 11 15 1015.0 1011.6 -
 
Date/Time
CST
Temp
°C
App
Temp
°C
Dew
Point
Rel
Hum
%
Delta-T
°C
Wind Press
QNH
hPa
Press
MSL
hPa
Rain
since 9 am
mm
Dir
 
Spd
km/h
Gust
km/h
Spd
kts
Gust
kts
24/11:30pm 29.8 25.8 11.8 33 10.7 SE 24 32 13 17 1015.1 1011.7 -
24/11:00pm 30.2 26.2 11.7 32 11.0 SE 24 37 13 20 1014.9 1011.5 -
24/10:30pm 30.4 25.7 12.0 32 11.0 SE 28 41 15 22 1014.8 1011.4 -
24/10:21pm 30.5 25.1 12.9 34 10.7 SE 33 43 18 23 1014.7 1011.3 -
24/10:00pm 30.4 28.8 13.8 36 10.2 SE 15 22 8 12 1014.5 1011.1 -
24/09:30pm 30.9 28.2 13.4 34 10.7 SSE 20 30 11 16 1014.2 1010.8 -
24/09:00pm 30.7 28.2 14.0 36 10.3 SSE 20 26 11 14 1013.8 1010.4 -
24/08:30pm 30.0 30.2 15.8 42 9.0 ESE 9 9 5 5 1013.2 1009.8 -
24/08:00pm 30.2 29.9 14.4 38 9.8 E 9 11 5 6 1012.5 1009.1 -
24/07:30pm 30.9 30.6 14.5 37 10.2 ESE 9 11 5 6 1012.1 1008.6 -
24/07:00pm 31.3 31.0 14.5 36 10.5 SE 9 11 5 6 1011.7 1008.3 -
24/06:30pm 32.6 31.4 12.8 30 12.1 SSE 11 15 6 8 1011.6 1008.2 -
24/06:00pm 33.2 31.9 12.6 28 12.6 S 11 17 6 9 1011.5 1008.1 -
24/05:30pm 33.7 31.3 11.4 25 13.4 S 15 20 8 11 1011.2 1007.8 -
24/05:00pm 34.1 33.2 12.6 27 13.2 SSE 9 15 5 8 1011.1 1007.7 0.0
24/04:30pm 33.8 33.0 13.0 28 12.8 SW 9 17 5 9 1011.3 1007.9 -
24/03:30pm 35.0 33.5 13.0 26 13.6 WSW 13 15 7 8 1111.0 - -
24/03:00pm 34.0 34.3 15.0 32 12.0 W 7 9 4 5 1222.0 - -
24/02:30pm 33.0 33.5 15.0 33 11.4 N 6 7 3 4 1222.0 - -
24/01:30pm 33.0 32.9 15.0 33 11.4 WNW 9 13 5 7 1333.0 - -
24/01:00pm 32.0 31.4 14.7 35 10.8 NNW 11 17 6 9 1013.9 - -
24/12:30pm 31.9 30.3 15.0 36 10.6 N 17 22 9 12 1014.3 - -
24/12:00pm 31.5 30.7 15.0 36 10.4 N 13 24 7 13 1014.7 - -
24/11:30am 30.0 27.8 16.0 42 8.9 NNW 22 28 12 15 1444.0 - -
24/10:30am 28.0 25.5 17.0 51 7.0 N 26 33 14 18 1015.0 - -
24/10:00am 28.0 27.2 17.0 51 7.0 NNW 17 19 9 10 1015.3 - -
24/09:30am 27.9 27.1 17.1 51 6.9 NNW 17 22 9 12 1015.4 - -
24/09:00am 27.3 26.5 18.0 56 6.0 NNW 19 26 10 14 1015.3 - -
24/08:00am 25.7 25.1 17.6 61 5.2 NNW 17 26 9 14 1014.5 - -
24/07:30am 25.1 24.1 17.5 62 4.9 NNW 19 22 10 12 1014.0 - -
24/07:00am 24.0 23.9 17.0 65 4.4 NW 13 19 7 10 1444.0 - -
24/03:00am 26.1 23.3 14.3 48 7.2 W 22 35 12 19 1011.8 1008.4 0.4
24/02:53am 27.2 26.3 16.8 53 6.6 W 17 26 9 14 1011.9 1008.5 0.4
24/02:30am 27.0 27.5 17.5 56 6.1 WSW 11 17 6 9 1011.0 1007.6 0.4
24/02:00am 26.2 28.9 20.7 71 3.7 W 7 11 4 6 1010.8 1007.4 0.4
24/01:30am 26.2 28.1 19.0 64 4.7 W 7 9 4 5 1010.9 1007.5 0.4
24/01:00am 26.4 27.9 18.9 63 4.9 NW 9 9 5 5 1011.4 1008.0 0.4
24/12:30am 26.1 29.0 18.1 61 5.2 CALM 0 0 0 0 1011.9 1008.5 0.4
24/12:00am 26.8 28.1 17.5 56 6.0 NE 7 11 4 6 1012.3 1008.8 0.4

Other Formats:

Comma delimited format used in spreadsheet applications
http://www.bom.gov.au/fwo/IDD60801/IDD60801.94326.axf

JavaScript Object Notation format (JSON) in row-major order
http://www.bom.gov.au/fwo/IDD60801/IDD60801.94326.json